createdAt,value
2022-10-31T00:01:34.881Z,13.24
2022-10-31T00:04:04.221Z,13.59
2022-10-31T00:06:32.338Z,13.20
2022-10-31T00:09:02.573Z,13.35
2022-10-31T00:11:30.563Z,12.43
2022-10-31T00:13:59.755Z,12.74
2022-10-31T00:16:28.902Z,12.26
2022-10-31T00:19:00.243Z,11.67
2022-10-31T00:21:29.327Z,11.75
2022-10-31T00:23:59.634Z,11.63
2022-10-31T00:26:29.272Z,11.71
2022-10-31T00:28:58.306Z,12.54
2022-10-31T00:31:26.613Z,13.06
2022-10-31T00:33:54.712Z,14.91
2022-10-31T00:36:22.692Z,15.11
2022-10-31T00:38:50.652Z,14.76
2022-10-31T00:41:19.497Z,14.45
2022-10-31T00:43:48.697Z,14.69
2022-10-31T00:46:16.801Z,14.71
2022-10-31T00:48:44.933Z,15.20
2022-10-31T00:51:13.097Z,15.99
2022-10-31T00:53:42.862Z,16.50
2022-10-31T00:56:12.104Z,16.88
2022-10-31T00:58:40.152Z,17.71
2022-10-31T01:01:09.047Z,18.70
2022-10-31T01:03:37.199Z,19.91
2022-10-31T01:06:09.266Z,18.88
2022-10-31T01:08:38.243Z,18.39
2022-10-31T01:11:11.609Z,18.80
2022-10-31T01:13:42.558Z,21.25
2022-10-31T01:16:13.167Z,23.99
2022-10-31T01:18:41.265Z,23.70
2022-10-31T01:21:12.977Z,22.17
2022-10-31T01:23:42.070Z,22.30
2022-10-31T01:26:11.260Z,22.21
2022-10-31T01:28:49.813Z,21.03
2022-10-31T01:31:19.874Z,22.15
2022-10-31T01:33:47.909Z,22.29
2022-10-31T01:36:22.452Z,22.08
2022-10-31T01:38:54.840Z,21.59
2022-10-31T01:41:26.314Z,23.05
2022-10-31T01:43:55.369Z,23.72
2022-10-31T01:46:33.673Z,23.65
2022-10-31T01:49:06.225Z,24.00
2022-10-31T01:51:38.047Z,21.61
2022-10-31T01:54:10.642Z,18.98
2022-10-31T01:56:42.158Z,18.29
2022-10-31T01:59:12.517Z,18.15
2022-10-31T02:01:42.714Z,18.24
2022-10-31T02:04:10.716Z,17.96
2022-10-31T02:06:48.814Z,17.99
2022-10-31T02:09:18.306Z,18.69
2022-10-31T02:11:46.284Z,19.22
2022-10-31T02:14:14.467Z,19.22
2022-10-31T02:16:42.376Z,18.90
2022-10-31T02:19:15.663Z,18.83
2022-10-31T02:21:50.349Z,18.33
2022-10-31T02:24:27.009Z,19.30
2022-10-31T02:27:13.610Z,19.26
2022-10-31T02:30:06.354Z,19.66
2022-10-31T02:32:52.775Z,18.76
2022-10-31T02:35:30.019Z,18.95
2022-10-31T02:38:15.058Z,18.88
2022-10-31T02:41:08.259Z,19.05
2022-10-31T02:43:59.153Z,18.50
2022-10-31T02:46:36.577Z,19.05
2022-10-31T02:49:32.786Z,19.32
2022-10-31T02:52:00.790Z,19.04
2022-10-31T02:54:29.585Z,19.10
2022-10-31T02:57:06.981Z,19.37
2022-10-31T02:59:38.337Z,20.43
2022-10-31T03:02:23.983Z,20.70
2022-10-31T03:05:06.204Z,22.76
2022-10-31T03:07:49.037Z,21.28
2022-10-31T03:10:22.960Z,20.28
2022-10-31T03:13:12.253Z,20.36
2022-10-31T03:15:45.325Z,19.16
2022-10-31T03:18:34.181Z,18.42
2022-10-31T03:21:15.145Z,17.46
2022-10-31T03:23:48.021Z,17.61
2022-10-31T03:26:22.838Z,17.48
2022-10-31T03:28:58.598Z,16.69
2022-10-31T03:31:34.249Z,17.30
2022-10-31T03:34:05.619Z,17.09
2022-10-31T03:36:36.541Z,16.43
2022-10-31T03:39:08.942Z,15.92
2022-10-31T03:41:44.454Z,15.78
2022-10-31T03:44:19.219Z,16.37
2022-10-31T03:46:54.591Z,16.52
2022-10-31T03:49:24.615Z,16.72
2022-10-31T03:51:55.429Z,16.36
2022-10-31T03:54:46.218Z,16.53
2022-10-31T03:57:27.871Z,17.11
2022-10-31T04:00:08.585Z,16.92
2022-10-31T04:03:09.704Z,16.55
2022-10-31T04:05:41.394Z,16.45
2022-10-31T04:08:16.237Z,15.48
2022-10-31T04:10:48.310Z,15.71
2022-10-31T04:13:22.527Z,15.02
2022-10-31T04:15:59.029Z,15.32
2022-10-31T04:18:27.909Z,15.65
2022-10-31T04:21:04.164Z,14.84
2022-10-31T04:23:33.372Z,15.95
2022-10-31T04:26:04.568Z,16.74
2022-10-31T04:28:34.206Z,16.64
2022-10-31T04:31:03.411Z,16.31
2022-10-31T04:33:32.042Z,16.34
2022-10-31T04:36:01.734Z,15.86
2022-10-31T04:38:29.901Z,17.13
2022-10-31T04:40:58.001Z,16.65
2022-10-31T04:43:49.230Z,16.01
2022-10-31T04:46:17.630Z,17.41
2022-10-31T04:48:45.718Z,17.61
2022-10-31T04:51:13.687Z,19.29
2022-10-31T04:53:41.774Z,21.31
2022-10-31T04:56:28.056Z,21.00
2022-10-31T04:59:01.823Z,20.41
2022-10-31T05:01:38.017Z,20.62
2022-10-31T05:04:06.120Z,20.80
2022-10-31T05:06:34.190Z,20.99
2022-10-31T05:09:02.173Z,20.66
2022-10-31T05:11:30.687Z,21.25
2022-10-31T05:14:08.600Z,21.51
2022-10-31T05:16:55.137Z,21.58
2022-10-31T05:19:41.825Z,23.35
2022-10-31T05:22:29.732Z,23.17
2022-10-31T05:24:58.659Z,23.09
2022-10-31T05:27:26.581Z,29.46
2022-10-31T05:29:54.557Z,37.79
2022-10-31T05:32:22.783Z,38.32
2022-10-31T05:35:13.524Z,36.49
2022-10-31T05:38:02.271Z,36.73
2022-10-31T05:40:30.258Z,37.65
2022-10-31T05:42:59.868Z,37.13
2022-10-31T05:45:28.290Z,36.75
2022-10-31T05:48:03.429Z,39.16
2022-10-31T05:51:03.791Z,38.74
2022-10-31T05:53:31.865Z,37.31
2022-10-31T05:55:59.864Z,38.58
2022-10-31T05:58:27.793Z,37.78
2022-10-31T06:01:03.057Z,39.06
2022-10-31T06:03:31.110Z,37.45
2022-10-31T06:06:00.183Z,37.77
2022-10-31T06:08:34.951Z,38.06
2022-10-31T06:11:06.562Z,37.58
2022-10-31T06:13:53.088Z,37.84
2022-10-31T06:16:25.562Z,38.52
2022-10-31T06:18:56.027Z,43.26
2022-10-31T06:21:25.226Z,41.89
2022-10-31T06:23:53.154Z,41.42
2022-10-31T06:26:59.191Z,40.42
2022-10-31T06:29:28.083Z,40.98
2022-10-31T06:32:09.867Z,41.42
2022-10-31T06:34:42.457Z,40.33
2022-10-31T06:37:13.101Z,41.02
2022-10-31T06:39:43.949Z,39.43
2022-10-31T06:42:13.423Z,40.86
2022-10-31T06:44:41.387Z,39.94
2022-10-31T06:47:27.580Z,41.55
2022-10-31T06:49:59.490Z,40.75
2022-10-31T06:52:28.254Z,41.39
2022-10-31T06:54:57.502Z,41.03
2022-10-31T06:57:25.530Z,40.09
2022-10-31T06:59:53.462Z,41.18
2022-10-31T07:02:41.754Z,42.41
2022-10-31T07:05:09.830Z,41.99
2022-10-31T07:07:38.146Z,41.11
2022-10-31T07:10:06.255Z,41.19
2022-10-31T07:12:47.024Z,41.00
2022-10-31T07:15:16.904Z,40.67
2022-10-31T07:17:45.211Z,40.42
2022-10-31T07:20:13.339Z,41.58
2022-10-31T07:22:44.631Z,41.38
2022-10-31T07:25:14.937Z,42.80
2022-10-31T07:28:01.893Z,43.11
2022-10-31T07:30:30.329Z,43.47
2022-10-31T07:32:58.713Z,42.57
2022-10-31T07:35:39.721Z,42.32
2022-10-31T07:38:09.690Z,43.99
2022-10-31T07:40:37.801Z,44.65
2022-10-31T07:43:08.868Z,44.63
2022-10-31T07:45:58.548Z,43.36
2022-10-31T07:48:52.576Z,44.80
2022-10-31T07:51:52.783Z,43.17
2022-10-31T07:54:38.988Z,44.28
2022-10-31T07:57:10.311Z,43.79
2022-10-31T07:59:39.652Z,44.86
2022-10-31T08:02:09.716Z,45.27
2022-10-31T08:04:50.299Z,44.81
2022-10-31T08:07:31.192Z,45.17
2022-10-31T08:10:06.271Z,46.27
2022-10-31T08:12:36.023Z,44.71
2022-10-31T08:15:06.307Z,46.10
2022-10-31T08:17:37.088Z,47.30
2022-10-31T08:20:06.907Z,47.05
2022-10-31T08:22:43.900Z,44.86
2022-10-31T08:25:12.625Z,42.64
2022-10-31T08:27:40.852Z,43.10
2022-10-31T08:30:17.132Z,42.59
2022-10-31T08:33:01.199Z,43.24
2022-10-31T08:35:54.820Z,41.88
2022-10-31T08:38:41.352Z,42.28
2022-10-31T08:41:11.211Z,42.13
2022-10-31T08:43:39.627Z,41.77
2022-10-31T08:46:08.286Z,42.50
2022-10-31T08:48:36.499Z,42.44
2022-10-31T08:51:05.502Z,43.33
2022-10-31T08:53:33.961Z,44.34
2022-10-31T08:56:27.909Z,42.94
2022-10-31T08:58:55.931Z,43.96
2022-10-31T09:01:33.721Z,41.43
2022-10-31T09:04:01.804Z,42.86
2022-10-31T09:06:29.939Z,41.72
2022-10-31T09:08:58.843Z,40.61
2022-10-31T09:11:27.820Z,41.48
2022-10-31T09:14:18.539Z,42.24
2022-10-31T09:17:09.069Z,41.71
2022-10-31T09:19:53.655Z,41.08
2022-10-31T09:22:28.148Z,41.29
2022-10-31T09:24:56.172Z,45.24
2022-10-31T09:27:24.275Z,46.18
2022-10-31T09:29:55.001Z,48.77
2022-10-31T09:32:23.141Z,44.68
2022-10-31T09:34:51.929Z,45.10
2022-10-31T09:37:22.844Z,45.83
2022-10-31T09:39:52.797Z,47.75
2022-10-31T09:43:02.309Z,47.54
2022-10-31T09:45:43.282Z,46.30
2022-10-31T09:48:49.935Z,45.69
2022-10-31T09:51:32.497Z,47.54
2022-10-31T09:54:21.444Z,48.74
2022-10-31T09:56:50.061Z,51.65
2022-10-31T09:59:40.728Z,54.59
2022-10-31T10:02:44.533Z,56.41
2022-10-31T10:05:34.893Z,58.69
2022-10-31T10:08:17.871Z,61.53
2022-10-31T10:11:33.516Z,58.83
2022-10-31T10:14:30.229Z,61.63
2022-10-31T10:17:32.883Z,60.38
2022-10-31T10:20:24.219Z,60.62
2022-10-31T10:23:06.158Z,62.27
2022-10-31T10:25:42.380Z,62.01
2022-10-31T10:28:22.824Z,65.49
2022-10-31T10:31:03.594Z,61.83
2022-10-31T10:33:39.849Z,64.86
2022-10-31T10:36:14.829Z,64.02
2022-10-31T10:39:25.363Z,64.36
2022-10-31T10:42:11.826Z,65.70
2022-10-31T10:45:03.696Z,66.05
2022-10-31T10:47:43.981Z,65.29
2022-10-31T10:50:23.081Z,66.37
2022-10-31T10:53:32.741Z,65.26
2022-10-31T10:56:31.851Z,67.28
2022-10-31T10:58:59.924Z,67.75
2022-10-31T11:01:28.253Z,69.09
2022-10-31T11:03:56.261Z,73.56
2022-10-31T11:06:27.177Z,75.08
2022-10-31T11:08:55.147Z,76.30
2022-10-31T11:11:29.162Z,82.71
2022-10-31T11:14:14.310Z,89.12
2022-10-31T11:16:46.076Z,90.00
2022-10-31T11:19:16.101Z,83.43
2022-10-31T11:21:52.679Z,75.82
2022-10-31T11:24:27.229Z,76.33
2022-10-31T11:27:12.846Z,81.96
2022-10-31T11:29:40.935Z,99.14
2022-10-31T11:32:27.631Z,103.63
2022-10-31T11:35:00.648Z,100.71
2022-10-31T11:37:31.785Z,95.78
2022-10-31T11:40:04.911Z,102.91
2022-10-31T11:42:42.436Z,98.57
2022-10-31T11:45:27.797Z,96.58
2022-10-31T11:47:59.868Z,91.97
2022-10-31T11:50:39.969Z,92.38
2022-10-31T11:53:18.588Z,92.31
2022-10-31T11:55:47.858Z,85.69
2022-10-31T11:58:25.051Z,84.77
2022-10-31T12:00:55.950Z,76.70
2022-10-31T12:03:23.847Z,76.43
2022-10-31T12:06:02.884Z,74.00
2022-10-31T12:08:35.231Z,72.04
2022-10-31T12:11:09.443Z,71.67
2022-10-31T12:13:53.609Z,72.61
2022-10-31T12:16:30.486Z,70.81
2022-10-31T12:19:36.105Z,69.43
2022-10-31T12:22:28.095Z,70.93
2022-10-31T12:25:10.910Z,70.55
2022-10-31T12:28:22.187Z,68.06
2022-10-31T12:31:17.998Z,67.86
2022-10-31T12:33:48.900Z,65.71
2022-10-31T12:36:35.190Z,66.44
2022-10-31T12:39:34.787Z,65.14
2022-10-31T12:42:24.059Z,63.67
2022-10-31T12:45:02.126Z,61.15
2022-10-31T12:47:45.975Z,61.23
2022-10-31T12:50:17.547Z,59.79
2022-10-31T12:53:31.165Z,58.83
2022-10-31T12:56:08.047Z,57.36
2022-10-31T12:58:52.785Z,55.77
2022-10-31T13:01:40.688Z,54.81
2022-10-31T13:04:17.809Z,54.48
2022-10-31T13:06:52.370Z,53.13
2022-10-31T13:09:35.043Z,52.73
2022-10-31T13:12:10.163Z,51.52
2022-10-31T13:14:43.249Z,49.76
2022-10-31T13:17:26.495Z,48.70
2022-10-31T13:20:20.370Z,47.50
2022-10-31T13:22:53.212Z,44.84
2022-10-31T13:25:25.899Z,44.12
2022-10-31T13:27:59.914Z,41.95
2022-10-31T13:30:34.687Z,40.76
2022-10-31T13:33:19.479Z,40.66
2022-10-31T13:35:56.427Z,39.46
2022-10-31T13:38:32.440Z,38.93
2022-10-31T13:41:07.479Z,39.65
2022-10-31T13:44:01.266Z,39.13
2022-10-31T13:49:41.349Z,37.69
2022-10-31T13:52:12.250Z,36.22
2022-10-31T13:54:43.506Z,37.05
2022-10-31T13:57:17.296Z,36.72
2022-10-31T14:00:21.150Z,35.83
2022-10-31T14:02:55.488Z,35.99
2022-10-31T14:05:28.528Z,34.62
2022-10-31T14:07:59.521Z,34.97
2022-10-31T14:10:31.803Z,40.60
2022-10-31T14:13:16.652Z,36.84
2022-10-31T14:15:54.778Z,34.40
2022-10-31T14:18:26.659Z,33.19
2022-10-31T14:20:54.750Z,33.27
2022-10-31T14:23:34.568Z,32.29
2022-10-31T14:26:20.774Z,32.38
2022-10-31T14:28:50.975Z,32.02
2022-10-31T14:31:40.428Z,33.21
2022-10-31T14:34:36.404Z,34.05
2022-10-31T14:37:46.559Z,34.63
2022-10-31T14:40:39.577Z,33.93
2022-10-31T14:43:39.917Z,35.06
2022-10-31T14:46:19.739Z,36.22
2022-10-31T14:49:24.787Z,35.60
2022-10-31T14:51:53.637Z,35.33
2022-10-31T14:54:34.200Z,35.35
2022-10-31T14:57:08.912Z,36.39
2022-10-31T14:59:48.227Z,34.86
2022-10-31T15:02:42.443Z,34.73
2022-10-31T15:05:12.483Z,35.69
2022-10-31T15:08:13.814Z,35.46
2022-10-31T15:10:47.005Z,35.32
2022-10-31T15:13:20.944Z,34.64
2022-10-31T15:15:52.456Z,34.83
2022-10-31T15:18:27.597Z,35.46
2022-10-31T15:20:57.702Z,36.02
2022-10-31T15:23:28.768Z,31.87
2022-10-31T15:26:01.751Z,30.67
2022-10-31T15:28:32.383Z,29.38
2022-10-31T15:31:03.038Z,27.19
2022-10-31T15:33:48.212Z,26.35
2022-10-31T15:36:28.480Z,26.71
2022-10-31T15:38:58.857Z,34.64
2022-10-31T15:41:33.120Z,29.80
2022-10-31T15:44:13.043Z,36.63
2022-10-31T15:46:41.687Z,38.00
2022-10-31T15:49:33.761Z,30.93
2022-10-31T15:52:29.991Z,28.31
2022-10-31T15:55:03.168Z,24.74
2022-10-31T15:57:31.925Z,24.14
2022-10-31T15:59:59.958Z,24.50
2022-10-31T16:02:28.716Z,25.44
2022-10-31T16:05:01.518Z,25.25
2022-10-31T16:07:31.009Z,25.36
2022-10-31T16:10:04.615Z,25.51
2022-10-31T16:12:46.045Z,26.06
2022-10-31T16:15:19.271Z,27.31
2022-10-31T16:17:52.430Z,27.75
2022-10-31T16:20:26.507Z,33.10
2022-10-31T16:22:56.463Z,29.02
2022-10-31T16:25:28.752Z,28.26
2022-10-31T16:28:07.357Z,26.39
2022-10-31T16:30:43.968Z,27.74
2022-10-31T16:33:37.345Z,27.31
2022-10-31T16:36:35.968Z,27.40
2022-10-31T16:39:05.839Z,27.90
2022-10-31T16:41:40.287Z,28.25
2022-10-31T16:44:18.945Z,28.77
2022-10-31T16:46:47.078Z,29.91
2022-10-31T16:49:16.584Z,29.20
2022-10-31T16:51:44.644Z,29.85
2022-10-31T16:54:12.708Z,29.11
2022-10-31T16:56:40.749Z,30.61
2022-10-31T16:59:16.067Z,29.94
2022-10-31T17:01:49.569Z,29.80
2022-10-31T17:04:18.403Z,30.39
2022-10-31T17:06:46.354Z,30.50
2022-10-31T17:09:14.247Z,32.09
2022-10-31T17:11:49.832Z,32.76
2022-10-31T17:14:19.122Z,31.96
2022-10-31T17:16:47.199Z,31.02
2022-10-31T17:19:15.310Z,31.68
2022-10-31T17:21:51.529Z,30.43
2022-10-31T17:24:19.699Z,30.96
2022-10-31T17:26:47.680Z,32.27
2022-10-31T17:29:15.699Z,40.56
2022-10-31T17:31:43.759Z,42.09
2022-10-31T17:34:11.792Z,43.34
2022-10-31T17:36:39.992Z,41.79
2022-10-31T17:39:09.696Z,40.25
2022-10-31T17:41:37.661Z,39.08
2022-10-31T17:44:05.581Z,38.57
2022-10-31T17:46:33.566Z,40.17
2022-10-31T17:49:01.840Z,40.46
2022-10-31T17:51:29.857Z,37.33
2022-10-31T17:53:58.750Z,34.17
2022-10-31T17:56:26.732Z,28.81
2022-10-31T17:58:55.210Z,29.89
2022-10-31T18:01:23.235Z,30.82
2022-10-31T18:03:51.263Z,34.03
2022-10-31T18:06:20.214Z,33.03
2022-10-31T18:08:48.118Z,30.47
2022-10-31T18:11:21.370Z,28.19
2022-10-31T18:13:56.390Z,25.46
2022-10-31T18:16:25.674Z,25.88
2022-10-31T18:18:58.553Z,31.59
2022-10-31T18:21:26.601Z,38.45
2022-10-31T18:24:02.855Z,36.30
2022-10-31T18:26:31.014Z,30.15
2022-10-31T18:28:59.208Z,29.57
2022-10-31T18:31:27.692Z,24.66
2022-10-31T18:33:56.800Z,20.54
2022-10-31T18:36:25.695Z,18.84
2022-10-31T18:38:53.717Z,17.88
2022-10-31T18:41:21.996Z,17.80
2022-10-31T18:43:50.066Z,18.14
2022-10-31T18:46:19.798Z,18.35
2022-10-31T18:48:48.049Z,19.20
2022-10-31T18:51:18.406Z,19.06
2022-10-31T18:53:54.185Z,18.96
2022-10-31T18:56:23.346Z,18.73
2022-10-31T18:58:51.698Z,18.45
2022-10-31T19:01:21.694Z,18.19
2022-10-31T19:03:54.364Z,17.92
2022-10-31T19:06:24.858Z,17.89
2022-10-31T19:09:11.082Z,18.89
2022-10-31T19:11:39.272Z,20.04
2022-10-31T19:14:11.043Z,20.23
2022-10-31T19:16:39.682Z,21.46
2022-10-31T19:19:09.488Z,26.16
2022-10-31T19:21:37.666Z,25.99
2022-10-31T19:24:05.746Z,24.07
2022-10-31T19:26:34.920Z,24.40
2022-10-31T19:29:02.915Z,27.56
2022-10-31T19:31:30.900Z,30.12
2022-10-31T19:33:58.893Z,30.56
2022-10-31T19:36:27.649Z,26.43
2022-10-31T19:38:55.983Z,25.97
2022-10-31T19:41:26.488Z,23.30
2022-10-31T19:43:54.801Z,21.35
2022-10-31T19:49:12.048Z,19.35
2022-10-31T19:51:40.103Z,19.30
2022-10-31T19:54:07.988Z,20.86
2022-10-31T19:56:35.987Z,21.41
2022-10-31T19:59:04.107Z,22.00
2022-10-31T20:01:32.838Z,21.65
2022-10-31T20:04:01.072Z,21.35
2022-10-31T20:06:33.883Z,22.29
2022-10-31T20:09:08.901Z,21.50
2022-10-31T20:11:38.826Z,19.94
2022-10-31T20:14:08.240Z,18.17
2022-10-31T20:16:36.910Z,17.10
2022-10-31T20:19:05.006Z,17.72
2022-10-31T20:21:38.278Z,17.46
2022-10-31T20:24:09.817Z,17.59
2022-10-31T20:26:40.846Z,18.22
2022-10-31T20:29:13.638Z,18.41
2022-10-31T20:31:42.202Z,17.26
2022-10-31T20:34:10.088Z,17.44
2022-10-31T20:36:38.510Z,18.30
2022-10-31T20:39:06.553Z,17.55
2022-10-31T20:41:37.897Z,17.69
2022-10-31T20:44:06.633Z,16.92
2022-10-31T20:46:34.660Z,17.20
2022-10-31T20:49:02.627Z,17.00
2022-10-31T20:51:31.945Z,17.73
2022-10-31T20:54:00.785Z,18.12
2022-10-31T20:56:29.410Z,18.24
2022-10-31T20:58:57.541Z,18.40
2022-10-31T21:01:28.716Z,18.71
2022-10-31T21:03:58.446Z,17.45
2022-10-31T21:06:27.949Z,17.23
2022-10-31T21:08:57.059Z,17.93
2022-10-31T21:11:27.446Z,18.25
2022-10-31T21:13:55.320Z,17.28
2022-10-31T21:16:31.589Z,17.00
2022-10-31T21:19:00.646Z,16.99
2022-10-31T21:21:34.241Z,17.18
2022-10-31T21:24:13.299Z,16.41
2022-10-31T21:26:44.865Z,16.43
2022-10-31T21:29:14.382Z,16.04
2022-10-31T21:31:43.213Z,16.50
2022-10-31T21:34:11.913Z,16.33
2022-10-31T21:36:40.128Z,15.53
2022-10-31T21:39:09.459Z,16.56
2022-10-31T21:41:37.827Z,16.86
2022-10-31T21:44:06.025Z,17.60
2022-10-31T21:46:34.337Z,17.79
2022-10-31T21:49:03.940Z,18.67
2022-10-31T21:51:34.272Z,18.66
2022-10-31T21:54:22.723Z,18.04
2022-10-31T21:56:51.725Z,17.23
2022-10-31T21:59:20.321Z,17.73
2022-10-31T22:01:48.759Z,16.67
2022-10-31T22:04:16.944Z,16.29
2022-10-31T22:06:46.177Z,16.57
2022-10-31T22:09:15.556Z,16.60
2022-10-31T22:11:43.914Z,16.96
2022-10-31T22:14:14.295Z,17.03
2022-10-31T22:16:43.368Z,16.89
2022-10-31T22:19:13.382Z,16.82
2022-10-31T22:21:46.746Z,17.63
2022-10-31T22:24:16.036Z,16.91
2022-10-31T22:26:44.216Z,17.30
2022-10-31T22:29:17.517Z,17.97
2022-10-31T22:31:50.770Z,19.96
2022-10-31T22:34:21.609Z,17.62
2022-10-31T22:36:49.946Z,17.55
2022-10-31T22:39:18.081Z,17.36
2022-10-31T22:41:46.052Z,17.39
2022-10-31T22:44:14.035Z,17.27
2022-10-31T22:46:42.037Z,17.46
2022-10-31T22:49:14.763Z,16.94
2022-10-31T22:51:44.440Z,16.24
2022-10-31T22:54:17.900Z,16.47
2022-10-31T22:56:46.573Z,16.70
2022-10-31T22:59:16.914Z,17.28
2022-10-31T23:01:46.001Z,17.03
2022-10-31T23:04:16.434Z,15.71
2022-10-31T23:06:45.122Z,14.85
2022-10-31T23:09:15.880Z,15.31
2022-10-31T23:11:45.039Z,15.12
2022-10-31T23:14:18.909Z,14.62
2022-10-31T23:16:52.112Z,13.41
2022-10-31T23:19:20.418Z,13.49
2022-10-31T23:21:57.498Z,14.20
2022-10-31T23:24:31.762Z,14.90
2022-10-31T23:27:10.614Z,15.38
2022-10-31T23:29:47.498Z,15.44
2022-10-31T23:32:20.295Z,16.18
2022-10-31T23:34:50.596Z,16.34
2022-10-31T23:37:20.924Z,16.05
2022-10-31T23:39:49.482Z,16.26
2022-10-31T23:42:18.745Z,15.78
2022-10-31T23:44:47.294Z,14.92
2022-10-31T23:47:16.940Z,14.67
2022-10-31T23:49:45.426Z,14.31
2022-10-31T23:52:14.681Z,13.89
2022-10-31T23:54:43.424Z,14.37
2022-10-31T23:57:13.162Z,14.71
2022-10-31T23:59:41.120Z,15.06
